Time;durP1;ratioP1;P1;durP2;ratioP2;P2;SDS_P1;SDS_P2;PMS_P1;PMS_P2;Temp;Humidity;BMP_temperature;BMP_pressure;BME280_temperature;BME280_humidity;BME280_pressure;Samples;Min_cycle;Max_cycle;Signal;HPM_P1;HPM_P2
2021/01/14 00:00:00;;;;;;;3.60;2.22;;;;;;;2.40;84.87;98493.63;4993292;28;20444;-73
2021/01/14 00:02:26;;;;;;;3.97;2.28;;;;;;;2.43;85.75;98503.97;4993257;28;20022;-73
2021/01/14 00:04:52;;;;;;;3.88;2.40;;;;;;;2.43;85.52;98520.00;4992197;28;20038;-72
2021/01/14 00:07:19;;;;;;;4.50;2.83;;;;;;;2.37;86.20;98509.97;5000771;28;20049;-73
2021/01/14 00:09:44;;;;;;;3.28;2.10;;;;;;;2.40;86.15;98528.34;4993859;28;20391;-73
2021/01/14 00:12:10;;;;;;;5.38;2.33;;;;;;;2.47;85.83;98525.88;5004184;28;20101;-73
2021/01/14 00:14:35;;;;;;;4.28;2.47;;;;;;;2.37;86.44;98521.47;5002119;28;20049;-73
2021/01/14 00:17:01;;;;;;;4.13;2.60;;;;;;;2.33;86.55;98513.94;4991735;28;20089;-72
2021/01/14 00:19:26;;;;;;;5.40;2.70;;;;;;;2.32;86.76;98501.59;4993576;28;20035;-73
2021/01/14 00:21:51;;;;;;;4.97;2.95;;;;;;;2.29;86.76;98497.41;4992659;28;20034;-72
2021/01/14 00:24:17;;;;;;;4.95;2.85;;;;;;;2.40;86.21;98504.31;4994689;28;20030;-73
2021/01/14 00:26:42;;;;;;;6.68;2.90;;;;;;;2.36;86.64;98508.31;4992949;28;20030;-73
2021/01/14 00:29:07;;;;;;;3.92;2.45;;;;;;;2.30;86.90;98531.09;4993347;28;20038;-73
2021/01/14 00:31:34;;;;;;;5.38;2.95;;;;;;;2.40;86.06;98528.34;4991829;28;20388;-73
2021/01/14 00:34:00;;;;;;;5.95;3.15;;;;;;;2.43;86.06;98538.69;4991768;28;20041;-73
2021/01/14 00:36:33;;;;;;;5.72;2.83;;;;;;;2.37;86.72;98516.13;4992688;28;20023;-73
2021/01/14 00:39:02;;;;;;;5.57;2.70;;;;;;;2.33;86.24;98514.81;4983474;28;20030;-73
2021/01/14 00:41:28;;;;;;;;;;;;;;;2.35;86.71;98504.78;4991171;28;20540;-73
2021/01/14 00:43:54;;;;;;;4.82;2.80;;;;;;;2.35;86.18;98507.44;4992396;28;19923;-73
2021/01/14 00:46:20;;;;;;;5.47;2.55;;;;;;;2.32;85.75;98504.28;4992330;28;20589;-73
2021/01/14 00:48:46;;;;;;;4.60;2.75;;;;;;;2.39;85.22;98534.69;4980628;28;20057;-73
2021/01/14 00:51:11;;;;;;;4.15;2.22;;;;;;;2.35;84.30;98534.13;4990340;28;20411;-73
2021/01/14 00:53:38;;;;;;;3.78;2.10;;;;;;;2.38;85.35;98530.31;4983240;28;20034;-73
2021/01/14 00:56:04;;;;;;;3.40;2.08;;;;;;;2.29;85.16;98529.44;4989790;28;20380;-73
2021/01/14 00:58:29;;;;;;;3.78;2.42;;;;;;;2.38;84.81;98549.88;4991935;28;20045;-73
2021/01/14 01:00:54;;;;;;;4.13;2.60;;;;;;;2.31;84.69;98534.63;4993065;28;20026;-73
2021/01/14 01:03:20;;;;;;;5.20;2.80;;;;;;;2.33;84.99;98541.50;4993354;28;20673;-73
2021/01/14 01:05:45;;;;;;;4.63;2.40;;;;;;;2.38;84.10;98519.66;4994508;28;20106;-73
2021/01/14 01:08:10;;;;;;;4.43;2.55;;;;;;;2.47;85.05;98528.56;4995488;28;20026;-72
2021/01/14 01:10:36;;;;;;;5.70;2.47;;;;;;;2.47;84.32;98541.91;4997141;28;20415;-73
2021/01/14 01:13:01;;;;;;;4.00;2.40;;;;;;;2.50;83.60;98542.41;4997022;28;20122;-73
2021/01/14 01:15:27;;;;;;;5.82;2.40;;;;;;;2.45;84.52;98544.72;4994164;28;20472;-73
2021/01/14 01:17:53;;;;;;;6.70;2.60;;;;;;;2.46;84.87;98527.69;5007835;28;20038;-73
2021/01/14 01:20:18;;;;;;;5.65;3.08;;;;;;;2.43;85.27;98546.69;4995501;28;20022;-73
2021/01/14 01:22:44;;;;;;;6.30;3.08;;;;;;;2.41;85.50;98554.03;4995501;28;20026;-73
2021/01/14 01:25:09;;;;;;;6.38;2.63;;;;;;;2.35;85.21;98536.81;4996013;28;20109;-73
2021/01/14 01:27:35;;;;;;;8.30;3.30;;;;;;;2.35;85.42;98550.16;4995785;28;20110;-73
2021/01/14 01:30:00;;;;;;;4.25;2.58;;;;;;;2.29;85.34;98545.47;4994395;28;20026;-73
2021/01/14 01:32:26;;;;;;;5.05;2.92;;;;;;;2.31;85.59;98545.31;4995080;28;20101;-73
2021/01/14 01:34:51;;;;;;;6.13;3.17;;;;;;;2.32;85.17;98552.31;5002321;28;20038;-73
2021/01/14 01:37:16;;;;;;;4.93;3.20;;;;;;;2.39;85.21;98561.38;4993299;28;20037;-73
2021/01/14 01:39:42;;;;;;;5.22;2.92;;;;;;;2.28;85.35;98549.13;4995058;28;20030;-73
2021/01/14 01:42:08;;;;;;;8.23;3.25;;;;;;;2.33;85.37;98572.66;4994750;28;20037;-73
2021/01/14 01:44:33;;;;;;;5.05;2.47;;;;;;;2.17;85.53;98542.22;4994350;28;20610;-73
2021/01/14 01:47:07;;;;;;;6.20;3.10;;;;;;;2.35;85.06;98574.19;4995653;28;20041;-73
2021/01/14 01:49:34;;;;;;;5.57;2.85;;;;;;;2.38;85.56;98587.25;4995853;28;20026;-73
2021/01/14 01:52:02;;;;;;;6.05;2.95;;;;;;;2.34;85.60;98580.53;4996237;28;20088;-73
2021/01/14 01:54:30;;;;;;;6.50;3.03;;;;;;;2.39;85.61;98580.06;4994482;28;20030;-73
2021/01/14 01:56:56;;;;;;;7.03;2.95;;;;;;;2.40;85.24;98571.06;4995837;28;20357;-73
2021/01/14 01:59:22;;;;;;;3.63;2.45;;;;;;;2.40;84.98;98571.88;4994646;28;20029;-73
2021/01/14 02:01:48;;;;;;;5.00;2.90;;;;;;;2.37;85.16;98577.53;4994230;28;20029;-73
2021/01/14 02:04:13;;;;;;;4.20;2.42;;;;;;;2.34;85.19;98572.53;4992291;28;20034;-73
2021/01/14 02:06:58;;;;;;;5.32;2.67;;;;;;;2.31;84.95;98583.53;4992512;28;20055;-73
2021/01/14 02:09:25;;;;;;;5.63;2.42;;;;;;;2.41;84.03;98589.59;4994553;28;20025;-73
2021/01/14 02:12:02;;;;;;;6.80;2.90;;;;;;;2.44;84.16;98587.59;4995361;28;20034;-73
2021/01/14 02:14:30;;;;;;;3.95;2.20;;;;;;;2.36;83.75;98578.56;5005123;28;20033;-73
2021/01/14 02:16:55;;;;;;;6.82;2.70;;;;;;;2.40;83.46;98587.06;4995702;28;20034;-73
2021/01/14 02:19:25;;;;;;;4.75;2.35;;;;;;;2.48;83.64;98591.63;4995056;28;20022;-73
2021/01/14 02:21:55;;;;;;;4.85;2.33;;;;;;;2.47;84.05;98590.81;4993629;28;20033;-73
2021/01/14 02:24:32;;;;;;;5.13;2.50;;;;;;;2.47;83.54;98603.31;4990617;28;20031;-70
2021/01/14 02:26:58;;;;;;;6.43;2.50;;;;;;;2.49;82.86;98595.97;4995114;28;20030;-70
2021/01/14 02:29:24;;;;;;;3.80;2.40;;;;;;;2.37;83.44;98590.91;4994728;28;20488;-73
2021/01/14 02:31:49;;;;;;;3.03;2.22;;;;;;;2.48;83.56;98608.47;4994285;28;20027;-73
2021/01/14 02:34:14;;;;;;;4.95;2.60;;;;;;;2.41;83.50;98602.94;4993210;28;20022;-73
2021/01/14 02:36:40;;;;;;;5.10;2.70;;;;;;;2.39;83.97;98604.09;4993458;28;20026;-73
2021/01/14 02:39:05;;;;;;;4.07;2.13;;;;;;;2.53;82.15;98614.19;4988488;28;20058;-73
2021/01/14 02:41:30;;;;;;;3.35;1.90;;;;;;;2.48;83.00;98603.16;4993633;28;20026;-73
2021/01/14 02:43:55;;;;;;;6.25;1.98;;;;;;;2.48;83.39;98603.16;4993954;28;20030;-73
2021/01/14 02:46:22;;;;;;;5.78;2.83;;;;;;;2.49;82.83;98612.00;4994662;28;20022;-73
2021/01/14 02:48:53;;;;;;;6.00;2.20;;;;;;;2.50;82.28;98608.34;4993052;28;20027;-71
2021/01/14 02:51:23;;;;;;;4.47;2.25;;;;;;;2.51;82.08;98623.34;4995189;28;20026;-73
2021/01/14 02:53:51;;;;;;;5.00;2.50;;;;;;;2.51;82.83;98629.53;4994323;28;20507;-71
2021/01/14 02:56:17;;;;;;;5.28;2.05;;;;;;;2.54;82.15;98615.03;4995034;28;20026;-71
2021/01/14 02:58:44;;;;;;;4.82;1.92;;;;;;;2.54;81.74;98623.91;4993847;28;20056;-71
2021/01/14 03:01:09;;;;;;;4.85;1.98;;;;;;;2.42;82.17;98599.28;4995203;28;20034;-71
2021/01/14 03:03:35;;;;;;;5.70;2.35;;;;;;;2.47;82.13;98611.34;4995336;28;20475;-71
2021/01/14 03:06:00;;;;;;;5.13;2.55;;;;;;;2.48;82.21;98613.00;4994394;28;20578;-72
2021/01/14 03:08:25;;;;;;;3.42;2.10;;;;;;;2.51;82.12;98621.53;4993899;28;20049;-71
2021/01/14 03:10:50;;;;;;;4.78;2.20;;;;;;;2.36;82.84;98605.25;4997787;28;20032;-71
2021/01/14 03:13:16;;;;;;;3.72;1.90;;;;;;;2.49;81.89;98620.00;4978255;28;20476;-71
2021/01/14 03:15:41;;;;;;;5.75;2.20;;;;;;;2.37;82.44;98614.91;4988813;28;20022;-71
2021/01/14 03:18:10;;;;;;;7.25;2.40;;;;;;;2.48;82.74;98624.50;4994138;28;20105;-71
2021/01/14 03:20:35;;;;;;;3.53;2.00;;;;;;;2.34;82.93;98607.22;4992586;28;20113;-71
2021/01/14 03:23:00;;;;;;;5.25;2.00;;;;;;;2.33;83.14;98612.72;4993330;28;20121;-72
2021/01/14 03:25:25;;;;;;;7.78;1.98;;;;;;;2.45;83.21;98630.16;4983773;28;20026;-73
2021/01/14 03:27:51;;;;;;;4.93;2.45;;;;;;;2.38;83.27;98610.41;4994664;28;20033;-71
2021/01/14 03:30:16;;;;;;;4.60;2.40;;;;;;;2.32;81.76;98598.53;4992431;28;20476;-73
2021/01/14 03:32:42;;;;;;;5.88;2.30;;;;;;;2.33;82.94;98610.03;4993967;28;20022;-71
2021/01/14 03:35:08;;;;;;;5.60;2.40;;;;;;;2.35;83.19;98619.56;4993520;28;20034;-71
2021/01/14 03:37:41;;;;;;;5.30;2.60;;;;;;;2.24;83.65;98602.97;4994506;28;20112;-72
2021/01/14 03:40:09;;;;;;;3.95;2.10;;;;;;;2.29;83.45;98620.19;4988055;28;20036;-73
2021/01/14 03:42:35;;;;;;;4.47;2.42;;;;;;;2.24;83.03;98624.34;4985441;28;20041;-74
2021/01/14 03:45:00;;;;;;;8.98;2.65;;;;;;;2.26;83.49;98636.53;5004974;28;20120;-72
2021/01/14 03:47:25;;;;;;;7.55;2.90;;;;;;;2.21;83.39;98624.66;4993851;28;20492;-71
2021/01/14 03:49:51;;;;;;;8.25;2.80;;;;;;;2.16;83.70;98633.94;4992856;28;20068;-73
2021/01/14 03:52:16;;;;;;;5.95;2.20;;;;;;;2.18;83.64;98636.47;5005547;28;20082;-73
2021/01/14 03:54:45;;;;;;;6.47;2.60;;;;;;;2.24;83.88;98643.03;5015422;28;20078;-72
2021/01/14 03:57:10;;;;;;;4.10;2.40;;;;;;;2.11;83.92;98627.41;5014227;28;20034;-75
2021/01/14 03:59:35;;;;;;;5.00;2.78;;;;;;;2.08;84.34;98628.53;5013919;28;20037;-72
2021/01/14 04:02:06;;;;;;;7.95;3.10;;;;;;;2.10;84.91;98644.41;5012277;28;20053;-72
2021/01/14 04:04:32;;;;;;;7.30;3.78;;;;;;;2.08;85.65;98639.22;5011003;28;20026;-72
2021/01/14 04:06:57;;;;;;;6.88;3.38;;;;;;;2.08;86.19;98657.06;5007831;28;20058;-71
2021/01/14 04:09:22;;;;;;;6.35;3.15;;;;;;;2.02;85.87;98658.50;4991665;28;20076;-71
2021/01/14 04:11:48;;;;;;;8.38;3.20;;;;;;;2.02;86.03;98674.53;4993079;28;20030;-71
2021/01/14 04:14:13;;;;;;;6.80;3.15;;;;;;;1.98;86.35;98662.47;4989907;28;20100;-72
2021/01/14 04:16:38;;;;;;;6.20;3.20;;;;;;;1.86;85.81;98645.00;4992913;28;20988;-72
2021/01/14 04:19:04;;;;;;;8.50;3.40;;;;;;;1.92;85.90;98650.56;4992812;28;20059;-74
2021/01/14 04:21:29;;;;;;;6.28;2.97;;;;;;;1.91;86.47;98672.91;4993818;28;20451;-72
2021/01/14 04:23:54;;;;;;;6.30;3.00;;;;;;;1.88;86.36;98673.19;4992089;28;20026;-73
2021/01/14 04:26:19;;;;;;;5.35;2.97;;;;;;;1.89;86.75;98687.41;4993510;28;20033;-72
2021/01/14 04:28:45;;;;;;;5.93;3.00;;;;;;;1.88;86.34;98696.38;4989565;28;20431;-72
2021/01/14 04:31:12;;;;;;;6.90;2.60;;;;;;;1.86;86.75;98696.53;4994718;28;20037;-72
2021/01/14 04:33:38;;;;;;;5.57;3.15;;;;;;;1.84;86.57;98689.69;5014242;28;20394;-73
2021/01/14 04:36:04;;;;;;;4.53;2.70;;;;;;;1.83;86.47;98694.16;5013779;28;20026;-73
2021/01/14 04:38:29;;;;;;;5.60;2.65;;;;;;;1.73;86.29;98688.06;5013557;28;20029;-73
2021/01/14 04:41:02;;;;;;;7.60;3.03;;;;;;;1.73;86.94;98696.06;5014259;28;20037;-74
2021/01/14 04:43:30;;;;;;;5.85;3.08;;;;;;;1.68;86.62;98690.34;5013171;28;20060;-73
2021/01/14 04:46:04;;;;;;;5.47;2.90;;;;;;;1.58;86.54;98669.06;5006587;28;20691;-73
2021/01/14 04:48:30;;;;;;;5.45;3.03;;;;;;;1.62;86.77;98685.59;4991781;28;20030;-73
2021/01/14 04:51:04;;;;;;;8.60;3.30;;;;;;;1.60;86.89;98682.22;4993602;28;20061;-73
2021/01/14 04:53:33;;;;;;;8.63;2.92;;;;;;;1.70;86.93;98702.53;5006420;28;20026;-73
2021/01/14 04:56:01;;;;;;;6.10;3.28;;;;;;;1.63;87.18;98705.94;4992428;28;20022;-73
2021/01/14 04:58:28;;;;;;;6.57;3.20;;;;;;;1.60;87.08;98704.41;4993721;28;20472;-72
2021/01/14 05:00:57;;;;;;;4.78;3.05;;;;;;;1.53;86.84;98690.84;4990976;28;20618;-73
2021/01/14 05:03:25;;;;;;;5.88;2.35;;;;;;;1.62;87.30;98691.75;4990003;28;20027;-73
2021/01/14 05:05:51;;;;;;;6.38;3.10;;;;;;;1.61;87.23;98705.25;4993142;28;20032;-73
2021/01/14 05:08:24;;;;;;;6.10;3.10;;;;;;;1.52;87.65;98686.50;4993038;28;20109;-74
2021/01/14 05:10:51;;;;;;;6.13;3.05;;;;;;;1.51;87.32;98703.47;4992209;28;20484;-73
2021/01/14 05:13:16;;;;;;;5.60;2.95;;;;;;;1.58;87.41;98721.56;4992131;28;20038;-73
2021/01/14 05:15:41;;;;;;;7.43;3.15;;;;;;;1.48;87.29;98703.75;4992847;28;20400;-73
2021/01/14 05:18:07;;;;;;;6.05;2.55;;;;;;;1.47;87.24;98695.94;4991731;28;20034;-71
2021/01/14 05:20:32;;;;;;;5.72;3.08;;;;;;;1.50;87.06;98708.97;4992579;28;20034;-71
2021/01/14 05:23:00;;;;;;;7.82;3.20;;;;;;;1.52;87.30;98734.50;4990728;28;20050;-69
2021/01/14 05:25:26;;;;;;;6.00;3.28;;;;;;;1.40;86.98;98733.00;4992490;28;20038;-72
2021/01/14 05:27:51;;;;;;;6.47;3.00;;;;;;;1.41;87.40;98753.31;4991511;28;20125;-72
2021/01/14 05:30:17;;;;;;;6.72;2.97;;;;;;;1.39;87.35;98744.66;4992525;28;20114;-71
2021/01/14 05:32:45;;;;;;;9.07;3.00;;;;;;;1.41;87.59;98763.97;4990899;28;20035;-69
2021/01/14 05:35:13;;;;;;;9.07;3.03;;;;;;;1.35;87.43;98759.25;4991369;28;20061;-71
2021/01/14 05:37:44;;;;;;;7.18;3.25;;;;;;;1.37;87.21;98759.94;4988196;28;20038;-71
2021/01/14 05:40:12;;;;;;;5.53;3.20;;;;;;;1.33;87.26;98758.53;4984030;28;20062;-70
2021/01/14 05:42:38;;;;;;;6.43;3.10;;;;;;;1.41;87.49;98750.66;4992864;28;20022;-70
2021/01/14 05:45:06;;;;;;;7.57;2.97;;;;;;;1.31;87.50;98740.03;4973468;28;20026;-71
2021/01/14 05:47:32;;;;;;;9.82;3.92;;;;;;;1.36;87.26;98744.91;4988305;28;20435;-74
2021/01/14 05:50:06;;;;;;;8.18;3.17;;;;;;;1.26;87.35;98726.31;4995674;28;20109;-75
2021/01/14 05:52:44;;;;;;;7.22;3.90;;;;;;;1.34;87.42;98733.59;4987917;28;20130;-76
2021/01/14 05:55:10;;;;;;;7.07;3.63;;;;;;;1.30;87.19;98737.50;4997036;28;20033;-79
2021/01/14 05:57:40;;;;;;;7.57;3.92;;;;;;;1.25;87.18;98734.44;4996305;28;20037;-79
2021/01/14 06:00:14;;;;;;;6.90;3.45;;;;;;;1.19;87.19;98721.72;4975649;28;20101;-77
2021/01/14 06:02:40;;;;;;;6.53;2.97;;;;;;;1.24;86.96;98744.28;4975676;28;20451;-76
2021/01/14 06:05:28;;;;;;;6.07;3.42;;;;;;;1.21;87.77;98754.41;4995453;28;20026;-78
2021/01/14 06:07:54;;;;;;;7.35;3.53;;;;;;;1.12;87.44;98747.25;4996115;28;20022;-72
2021/01/14 06:10:30;;;;;;;9.75;4.07;;;;;;;1.17;87.47;98760.97;4996428;28;20026;-75
2021/01/14 06:12:55;;;;;;;7.55;3.88;;;;;;;1.04;87.04;98743.47;4992619;28;20022;-73
2021/01/14 06:15:20;;;;;;;4.90;2.97;;;;;;;1.06;87.13;98751.34;4982750;28;20526;-77
2021/01/14 06:17:47;;;;;;;6.57;3.40;;;;;;;0.95;87.16;98738.19;4996146;28;20029;-76
2021/01/14 06:20:13;;;;;;;8.73;3.97;;;;;;;1.07;87.09;98747.69;4995824;28;20026;-78
2021/01/14 06:22:39;;;;;;;7.40;3.15;;;;;;;1.02;87.55;98756.13;4995278;28;20022;-73
2021/01/14 06:25:37;;;;;;;7.40;3.78;;;;;;;1.09;87.84;98777.69;4999340;28;20023;-73
2021/01/14 06:28:03;;;;;;;6.15;3.63;;;;;;;0.88;88.21;98761.88;4996854;28;20034;-76
2021/01/14 06:30:28;;;;;;;6.15;3.30;;;;;;;1.06;88.29;98780.66;4996679;28;20474;-76
2021/01/14 06:33:01;;;;;;;7.22;3.92;;;;;;;0.91;87.88;98777.56;4995282;28;20109;-75
2021/01/14 06:35:27;;;;;;;8.70;3.70;;;;;;;0.92;88.38;98779.28;4996648;28;20434;-78
2021/01/14 06:37:55;;;;;;;7.07;3.40;;;;;;;0.81;88.13;98768.75;4994979;28;20112;-77
2021/01/14 06:40:28;;;;;;;10.95;3.97;;;;;;;0.96;88.08;98795.81;4996721;28;20042;-79
2021/01/14 06:42:57;;;;;;;8.10;3.92;;;;;;;0.86;88.26;98782.50;4994812;28;20030;-73
2021/01/14 06:45:27;;;;;;;9.27;4.15;;;;;;;0.87;88.09;98789.53;5000009;28;20031;-77
2021/01/14 06:48:03;;;;;;;7.45;4.13;;;;;;;0.85;88.02;98792.31;4985599;28;20599;-77
2021/01/14 06:50:30;;;;;;;6.70;3.92;;;;;;;0.98;87.89;98802.66;4997348;28;20022;-78
2021/01/14 06:53:03;;;;;;;9.23;4.20;;;;;;;1.07;86.83;98809.81;4994541;28;20018;-75
2021/01/14 06:55:36;;;;;;;7.82;4.10;;;;;;;0.94;86.98;98803.94;4996005;28;20022;-75
2021/01/14 06:58:21;;;;;;;7.72;4.00;;;;;;;1.01;87.36;98814.88;4995717;28;20023;-75
2021/01/14 07:00:48;;;;;;;7.20;4.15;;;;;;;0.99;87.30;98812.34;4996169;28;20492;-77
2021/01/14 07:03:16;;;;;;;9.95;4.25;;;;;;;1.07;87.07;98817.81;4995382;28;20030;-75
2021/01/14 07:05:53;;;;;;;13.65;4.13;;;;;;;1.04;87.16;98818.06;4991612;28;20026;-76
2021/01/14 07:08:41;;;;;;;7.40;3.65;;;;;;;0.97;87.34;98819.66;4981002;28;20030;-70
2021/01/14 07:11:11;;;;;;;12.35;4.43;;;;;;;1.01;87.25;98815.69;4993147;28;20014;-73
2021/01/14 07:13:45;;;;;;;7.45;4.07;;;;;;;1.02;87.17;98822.72;4996013;28;20031;-75
2021/01/14 07:16:12;;;;;;;6.57;3.90;;;;;;;1.02;87.37;98821.88;4983192;28;20037;-75
2021/01/14 07:18:40;;;;;;;8.27;4.40;;;;;;;0.93;87.93;98839.53;4992240;28;20018;-77
2021/01/14 07:21:30;;;;;;;11.27;4.43;;;;;;;0.91;88.01;98849.50;4994383;28;20030;-76
2021/01/14 07:24:18;;;;;;;10.55;5.07;;;;;;;0.88;88.35;98847.94;4987055;28;20033;-73
2021/01/14 07:26:50;;;;;;;10.60;4.28;;;;;;;0.94;87.75;98840.38;4986021;28;20394;-73
2021/01/14 07:29:17;;;;;;;7.78;4.32;;;;;;;0.89;87.81;98843.47;4990192;28;20054;-77
2021/01/14 07:31:51;;;;;;;11.95;4.78;;;;;;;0.93;87.78;98849.38;4999886;28;20054;-80
2021/01/14 07:34:34;;;;;;;9.90;5.13;;;;;;;0.85;87.97;98850.91;4995026;28;20116;-80
2021/01/14 07:37:00;;;;;;;14.52;5.45;;;;;;;0.84;87.78;98851.06;5003030;28;20114;-79
2021/01/14 07:39:56;;;;;;;10.05;4.88;;;;;;;0.90;87.87;98873.63;4982144;28;20023;-77
2021/01/14 07:42:29;;;;;;;11.20;5.40;;;;;;;0.90;88.01;98877.13;4981048;28;20030;-77
2021/01/14 07:44:59;;;;;;;9.55;4.70;;;;;;;0.91;87.84;98868.13;5003645;28;20049;-76
2021/01/14 07:47:36;;;;;;;13.38;5.20;;;;;;;0.87;87.70;98854.28;4992624;28;20396;-75
2021/01/14 07:50:18;;;;;;;12.07;4.97;;;;;;;0.94;87.36;98878.50;4993460;28;20041;-76
2021/01/14 07:52:45;;;;;;;11.68;4.40;;;;;;;0.88;87.23;98855.94;4990076;28;20029;-76
2021/01/14 07:55:11;;;;;;;6.90;4.25;;;;;;;0.76;87.50;98835.78;4984410;28;20117;-77
2021/01/14 07:57:46;;;;;;;8.52;4.82;;;;;;;0.90;86.74;98871.78;4994226;28;20084;-71
2021/01/14 08:00:21;;;;;;;11.50;5.25;;;;;;;0.96;87.05;98870.38;4995958;28;20034;-71
2021/01/14 08:03:12;;;;;;;9.23;4.85;;;;;;;0.95;87.36;98872.22;4996007;28;20026;-71
2021/01/14 08:06:03;;;;;;;10.70;4.65;;;;;;;0.80;87.20;98886.94;4993078;28;20022;-71
2021/01/14 08:08:32;;;;;;;7.15;4.38;;;;;;;0.88;87.11;98901.22;4991740;28;20041;-71
2021/01/14 08:11:23;;;;;;;10.38;5.00;;;;;;;0.85;87.12;98887.34;4991109;28;20038;-71
2021/01/14 08:14:08;;;;;;;13.07;4.88;;;;;;;0.95;86.77;98892.69;4989330;28;20038;-70
2021/01/14 08:16:38;;;;;;;8.43;4.60;;;;;;;0.99;86.57;98897.56;4997451;28;20026;-70
2021/01/14 08:19:14;;;;;;;10.27;4.32;;;;;;;0.90;87.06;98893.09;4987946;28;20030;-70
2021/01/14 08:21:42;;;;;;;8.60;4.47;;;;;;;0.96;86.82;98903.19;4987777;28;20030;-74
2021/01/14 08:24:09;;;;;;;15.55;4.85;;;;;;;1.03;86.73;98912.31;4988369;28;20054;-74
2021/01/14 08:26:53;;;;;;;7.70;4.38;;;;;;;1.05;86.86;98907.69;4976173;28;20026;-75
2021/01/14 08:29:33;;;;;;;8.30;4.63;;;;;;;1.02;86.82;98902.66;4985386;28;20026;-75
2021/01/14 08:31:58;;;;;;;;;;;;;;;0.99;86.62;98904.72;4991320;28;20052;-74
2021/01/14 08:34:25;;;;;;;8.60;4.70;;;;;;;1.01;86.92;98906.28;4992605;28;19937;-73
2021/01/14 08:36:56;;;;;;;10.48;4.88;;;;;;;1.07;86.68;98919.06;4980480;28;20569;-75
2021/01/14 08:39:23;;;;;;;7.75;4.25;;;;;;;0.97;86.54;98896.91;4991534;28;20388;-76
2021/01/14 08:41:49;;;;;;;11.70;4.80;;;;;;;0.99;86.24;98918.88;4980152;28;20033;-73
2021/01/14 08:44:17;;;;;;;8.48;4.18;;;;;;;1.16;86.61;98940.50;4992758;28;20034;-74
2021/01/14 08:46:47;;;;;;;9.43;4.30;;;;;;;1.16;86.67;98927.19;4986473;28;20026;-76
2021/01/14 08:49:15;;;;;;;10.55;4.45;;;;;;;1.22;86.59;98943.44;4983619;28;20480;-75
2021/01/14 08:51:41;;;;;;;13.95;5.32;;;;;;;1.25;86.46;98942.31;4991860;28;20030;-73
2021/01/14 08:54:07;;;;;;;6.88;4.47;;;;;;;1.19;87.00;98932.22;4992967;28;20105;-78
2021/01/14 08:56:32;;;;;;;7.60;4.72;;;;;;;1.22;86.54;98932.78;4989504;28;20456;-69
2021/01/14 08:59:12;;;;;;;8.50;4.07;;;;;;;1.30;86.38;98932.09;4991399;28;20102;-72
2021/01/14 09:01:38;;;;;;;10.60;4.70;;;;;;;1.27;86.20;98916.38;4993479;28;20034;-71
2021/01/14 09:04:08;;;;;;;9.00;4.88;;;;;;;1.26;86.10;98922.69;4992562;28;20820;-72
2021/01/14 09:06:38;;;;;;;9.68;4.63;;;;;;;1.26;85.91;98934.19;4985833;28;20052;-75
2021/01/14 09:09:09;;;;;;;10.70;4.68;;;;;;;1.37;85.81;98927.88;4996587;28;20022;-74
2021/01/14 09:11:36;;;;;;;10.00;4.82;;;;;;;1.37;85.73;98935.88;4988431;28;20023;-77
2021/01/14 09:14:12;;;;;;;7.55;4.70;;;;;;;1.37;85.95;98949.19;4991777;28;20618;-76
2021/01/14 09:16:40;;;;;;;8.68;4.70;;;;;;;1.38;85.84;98953.53;4990397;28;20033;-70
2021/01/14 09:19:19;;;;;;;12.23;5.85;;;;;;;1.38;85.74;98958.88;4992242;28;20369;-73
2021/01/14 09:21:45;;;;;;;8.50;4.72;;;;;;;1.55;85.50;98960.00;4989158;28;20113;-71
2021/01/14 09:24:12;;;;;;;9.23;4.60;;;;;;;1.49;85.26;98950.75;4992446;28;20571;-78
2021/01/14 09:26:40;;;;;;;10.23;5.63;;;;;;;1.48;85.38;98950.88;4994730;28;20014;-73
2021/01/14 09:29:06;;;;;;;13.07;5.25;;;;;;;1.58;85.36;98973.03;4983356;28;20030;-76
2021/01/14 09:31:36;;;;;;;11.43;4.75;;;;;;;1.70;85.25;98977.25;4992588;28;20476;-70
2021/01/14 09:34:02;;;;;;;8.73;4.93;;;;;;;1.73;84.90;98976.13;4995051;28;20495;-69
2021/01/14 09:36:28;;;;;;;9.80;4.97;;;;;;;1.82;84.97;98985.91;4987247;28;20038;-72
2021/01/14 09:38:56;;;;;;;9.45;4.90;;;;;;;1.89;84.70;98981.69;4996233;28;20396;-78
2021/01/14 09:41:28;;;;;;;8.45;4.60;;;;;;;1.72;84.24;98975.25;4998008;28;20049;-71
2021/01/14 09:43:56;;;;;;;8.15;5.20;;;;;;;1.67;84.68;98982.00;5003361;28;20469;-78
2021/01/14 09:46:24;;;;;;;9.38;5.30;;;;;;;1.83;84.57;98995.59;4988022;28;20404;-75
2021/01/14 09:48:55;;;;;;;9.43;4.90;;;;;;;1.79;84.14;98982.69;5005515;28;20459;-75
2021/01/14 09:51:20;;;;;;;11.23;5.43;;;;;;;1.75;84.25;98985.63;5002223;28;20090;-71
2021/01/14 09:53:48;;;;;;;13.02;5.70;;;;;;;1.64;83.69;98983.13;4995454;28;20053;-72
2021/01/14 09:56:31;;;;;;;9.63;4.80;;;;;;;1.73;83.97;98990.28;4988404;28;20069;-72
2021/01/14 09:59:00;;;;;;;8.43;4.68;;;;;;;1.93;83.18;99024.94;4995084;28;20069;-73
2021/01/14 10:01:41;;;;;;;12.02;5.32;;;;;;;1.86;82.45;99000.66;4992306;28;20030;-72
2021/01/14 10:04:10;;;;;;;9.43;5.68;;;;;;;1.85;83.65;99011.47;4995364;28;20042;-74
2021/01/14 10:06:42;;;;;;;9.20;4.97;;;;;;;1.77;83.09;98988.16;4993271;28;20056;-75
2021/01/14 10:09:09;;;;;;;12.52;4.88;;;;;;;2.08;83.50;99018.16;5010451;28;20038;-71
2021/01/14 10:11:35;;;;;;;10.55;4.72;;;;;;;2.04;82.67;99002.56;4987751;28;20054;-71
2021/01/14 10:14:00;;;;;;;10.32;4.75;;;;;;;2.12;82.50;99000.03;4991983;28;20038;-71
2021/01/14 10:16:28;;;;;;;9.75;4.53;;;;;;;2.19;82.81;99017.97;4992882;28;20026;-72
2021/01/14 10:19:08;;;;;;;12.07;4.93;;;;;;;2.23;82.15;99015.03;4992413;28;20037;-72
2021/01/14 10:21:37;;;;;;;9.52;4.40;;;;;;;2.31;81.91;99020.50;4996341;28;20046;-70
2021/01/14 10:24:03;;;;;;;10.93;5.17;;;;;;;2.23;82.18;99013.22;4993165;28;20034;-73
2021/01/14 10:26:29;;;;;;;9.45;4.80;;;;;;;2.09;81.94;99008.31;4990762;28;20074;-72
2021/01/14 10:28:55;;;;;;;9.23;5.00;;;;;;;2.13;81.74;99010.56;4991037;28;20034;-71
2021/01/14 10:31:33;;;;;;;9.68;4.70;;;;;;;2.34;81.52;99028.22;4990920;28;20031;-78
2021/01/14 10:33:59;;;;;;;13.40;4.60;;;;;;;2.31;81.93;99020.50;4990284;28;20038;-74
2021/01/14 10:36:24;;;;;;;10.43;5.03;;;;;;;2.37;81.31;99027.91;4995446;28;20022;-71
2021/01/14 10:38:50;;;;;;;10.40;4.85;;;;;;;2.29;82.21;99039.31;4994060;28;20080;-71
2021/01/14 10:41:21;;;;;;;6.93;4.47;;;;;;;2.20;82.08;99034.84;4993260;28;20061;-70
2021/01/14 10:43:47;;;;;;;9.02;4.95;;;;;;;2.00;82.83;99022.53;4993812;28;20037;-71
2021/01/14 10:46:22;;;;;;;8.90;5.18;;;;;;;2.31;81.74;99044.53;4977934;28;20030;-74
2021/01/14 10:48:47;;;;;;;9.93;4.60;;;;;;;2.39;81.49;99045.47;4990257;28;20030;-69
2021/01/14 10:51:12;;;;;;;10.55;4.57;;;;;;;2.38;80.45;99041.13;4991794;28;20164;-71
2021/01/14 10:53:38;;;;;;;8.43;4.78;;;;;;;2.48;80.39;99038.41;4983551;28;20033;-72
2021/01/14 10:56:15;;;;;;;11.40;5.18;;;;;;;2.42;80.93;99047.84;4990217;28;20539;-74
2021/01/14 10:58:40;;;;;;;9.05;4.95;;;;;;;2.37;80.80;99044.78;4992753;28;20476;-75
2021/01/14 11:01:19;;;;;;;10.43;4.88;;;;;;;2.42;79.88;99037.16;4973631;28;20033;-74
2021/01/14 11:03:45;;;;;;;13.07;5.32;;;;;;;2.60;80.06;99058.63;4989889;28;20152;-73
2021/01/14 11:06:11;;;;;;;9.63;4.63;;;;;;;2.44;79.69;99039.72;4988809;28;20255;-75
2021/01/14 11:08:46;;;;;;;9.82;4.80;;;;;;;2.27;79.79;99011.09;4984343;28;20019;-76
2021/01/14 11:11:14;;;;;;;10.23;5.07;;;;;;;2.45;79.96;99040.53;4987389;28;20022;-79
2021/01/14 11:13:47;;;;;;;10.93;4.75;;;;;;;2.47;79.79;99028.72;4995946;28;20022;-83
2021/01/14 11:16:14;;;;;;;8.27;5.15;;;;;;;2.68;79.17;99039.19;4986699;28;20022;-77
2021/01/14 11:18:44;;;;;;;11.50;4.78;;;;;;;2.56;79.70;99033.19;4982009;28;20030;-71
2021/01/14 11:21:10;;;;;;;8.80;4.43;;;;;;;2.61;79.09;99038.09;4987260;28;20679;-72
2021/01/14 11:23:36;;;;;;;13.07;4.70;;;;;;;2.45;78.66;99014.69;4990596;28;20118;-74
2021/01/14 11:26:03;;;;;;;9.13;4.55;;;;;;;2.56;78.91;99032.34;4993448;28;20042;-74
2021/01/14 11:28:33;;;;;;;7.57;4.35;;;;;;;2.47;78.49;99004.69;4993700;28;20053;-75
2021/01/14 11:30:59;;;;;;;13.32;3.75;;;;;;;2.47;77.54;99028.72;4973314;28;20027;-73
2021/01/14 11:33:24;;;;;;;11.93;4.53;;;;;;;2.44;78.24;99023.69;4990117;28;20068;-73
2021/01/14 11:35:49;;;;;;;8.93;4.32;;;;;;;2.40;78.05;99019.59;4993207;28;20054;-73
2021/01/14 11:38:15;;;;;;;14.30;4.35;;;;;;;2.39;78.48;99026.78;4993571;28;20030;-73
2021/01/14 11:40:40;;;;;;;7.18;3.85;;;;;;;2.34;78.13;99026.38;4999551;28;20058;-74
2021/01/14 11:43:06;;;;;;;8.38;4.03;;;;;;;2.47;78.29;99027.88;4990208;28;20034;-75
2021/01/14 11:45:31;;;;;;;8.77;4.25;;;;;;;2.57;78.35;99028.69;4991129;28;20026;-72
2021/01/14 11:47:57;;;;;;;11.30;4.72;;;;;;;2.52;77.75;99029.13;4989466;28;20038;-73